sensor_id;sensor_type;location;lat;lon;timestamp;pressure;altitude;pressure_sealevel;temperature;humidity
7754;BME280;3921;42.266;23.122;2023-04-08T00:00:33;95657.72;;;8.78;52.96
7754;BME280;3921;42.266;23.122;2023-04-08T00:03:01;95548.84;;;8.02;52.81
7754;BME280;3921;42.266;23.122;2023-04-08T00:05:28;95621.69;;;8.44;53.07
7754;BME280;3921;42.266;23.122;2023-04-08T00:07:55;95159.47;;;5.75;52.72
7754;BME280;3921;42.266;23.122;2023-04-08T00:10:23;95468.53;;;7.50;53.19
7754;BME280;3921;42.266;23.122;2023-04-08T00:12:51;95197.91;;;5.98;53.19
7754;BME280;3921;42.266;23.122;2023-04-08T00:15:21;95211.22;;;6.02;53.35
7754;BME280;3921;42.266;23.122;2023-04-08T00:17:48;95395.81;;;7.07;53.60
7754;BME280;3921;42.266;23.122;2023-04-08T00:20:15;95439.19;;;7.19;53.52
7754;BME280;3921;42.266;23.122;2023-04-08T00:22:43;95364.06;;;6.92;53.90
7754;BME280;3921;42.266;23.122;2023-04-08T00:25:10;95606.63;;;8.43;54.25
7754;BME280;3921;42.266;23.122;2023-04-08T00:27:39;95275.44;;;6.26;54.20
7754;BME280;3921;42.266;23.122;2023-04-08T00:30:06;95291.44;;;6.55;54.14
7754;BME280;3921;42.266;23.122;2023-04-08T00:32:34;95625.09;;;8.69;54.08
7754;BME280;3921;42.266;23.122;2023-04-08T00:35:01;95563.97;;;8.21;53.91
7754;BME280;3921;42.266;23.122;2023-04-08T00:37:28;95234.66;;;6.22;54.36
7754;BME280;3921;42.266;23.122;2023-04-08T00:39:56;95336.50;;;6.72;54.36
7754;BME280;3921;42.266;23.122;2023-04-08T00:42:26;95594.88;;;8.34;54.24
7754;BME280;3921;42.266;23.122;2023-04-08T00:45:05;95547.25;;;8.14;54.29
7754;BME280;3921;42.266;23.122;2023-04-08T00:47:32;95380.78;;;7.05;54.63
7754;BME280;3921;42.266;23.122;2023-04-08T00:50:01;95631.75;;;8.57;54.46
7754;BME280;3921;42.266;23.122;2023-04-08T00:52:29;95613.34;;;8.50;54.18
7754;BME280;3921;42.266;23.122;2023-04-08T00:54:56;95639.25;;;8.60;54.34
7754;BME280;3921;42.266;23.122;2023-04-08T00:57:23;95602.47;;;8.39;54.25
7754;BME280;3921;42.266;23.122;2023-04-08T00:59:50;95652.63;;;8.56;54.85
7754;BME280;3921;42.266;23.122;2023-04-08T01:02:24;95624.16;;;8.41;54.78
7754;BME280;3921;42.266;23.122;2023-04-08T01:04:58;95436.75;;;7.29;54.14
7754;BME280;3921;42.266;23.122;2023-04-08T01:07:29;95440.03;;;7.17;54.52
7754;BME280;3921;42.266;23.122;2023-04-08T01:10:02;95327.13;;;6.45;54.60
7754;BME280;3921;42.266;23.122;2023-04-08T01:12:32;95650.91;;;8.50;54.66
7754;BME280;3921;42.266;23.122;2023-04-08T01:15:05;95541.28;;;7.88;54.71
7754;BME280;3921;42.266;23.122;2023-04-08T01:17:36;95730.44;;;8.94;55.11
7754;BME280;3921;42.266;23.122;2023-04-08T01:20:05;95441.66;;;7.13;55.04
7754;BME280;3921;42.266;23.122;2023-04-08T01:22:42;95408.19;;;6.93;55.21
7754;BME280;3921;42.266;23.122;2023-04-08T01:25:16;95645.66;;;8.13;55.75
7754;BME280;3921;42.266;23.122;2023-04-08T01:27:47;95629.09;;;8.32;55.59
7754;BME280;3921;42.266;23.122;2023-04-08T01:30:18;95241.13;;;6.00;55.40
7754;BME280;3921;42.266;23.122;2023-04-08T01:32:46;95264.50;;;6.08;55.31
7754;BME280;3921;42.266;23.122;2023-04-08T01:35:17;95240.31;;;5.98;55.27
7754;BME280;3921;42.266;23.122;2023-04-08T01:37:45;95649.09;;;8.31;55.03
7754;BME280;3921;42.266;23.122;2023-04-08T01:40:15;95763.88;;;8.99;54.91
7754;BME280;3921;42.266;23.122;2023-04-08T01:42:46;95658.25;;;8.22;55.59
7754;BME280;3921;42.266;23.122;2023-04-08T01:45:21;95276.75;;;5.89;55.68
7754;BME280;3921;42.266;23.122;2023-04-08T01:47:50;95535.06;;;7.34;55.48
7754;BME280;3921;42.266;23.122;2023-04-08T01:50:18;95606.34;;;7.92;55.48
7754;BME280;3921;42.266;23.122;2023-04-08T01:52:48;95481.47;;;6.90;55.59
7754;BME280;3921;42.266;23.122;2023-04-08T01:55:17;95605.53;;;7.95;55.92
7754;BME280;3921;42.266;23.122;2023-04-08T01:57:50;95677.50;;;8.34;55.90
7754;BME280;3921;42.266;23.122;2023-04-08T02:00:22;95526.72;;;7.29;55.51
7754;BME280;3921;42.266;23.122;2023-04-08T02:03:27;95237.34;;;5.49;56.06
7754;BME280;3921;42.266;23.122;2023-04-08T02:05:55;95644.03;;;8.20;56.01
7754;BME280;3921;42.266;23.122;2023-04-08T02:08:22;95490.78;;;7.16;56.31
7754;BME280;3921;42.266;23.122;2023-04-08T02:10:51;95796.41;;;8.90;55.98
7754;BME280;3921;42.266;23.122;2023-04-08T02:13:20;95184.78;;;5.22;55.89
7754;BME280;3921;42.266;23.122;2023-04-08T02:15:51;95361.97;;;6.31;56.94
7754;BME280;3921;42.266;23.122;2023-04-08T02:18:24;95666.44;;;8.00;57.28
7754;BME280;3921;42.266;23.122;2023-04-08T02:20:56;95659.03;;;8.15;57.00
7754;BME280;3921;42.266;23.122;2023-04-08T02:23:27;95593.69;;;7.71;56.41
7754;BME280;3921;42.266;23.122;2023-04-08T02:25:55;95248.22;;;5.59;56.92
7754;BME280;3921;42.266;23.122;2023-04-08T02:28:25;95255.81;;;5.71;56.65
7754;BME280;3921;42.266;23.122;2023-04-08T02:30:56;95319.22;;;5.93;56.89
7754;BME280;3921;42.266;23.122;2023-04-08T02:33:26;95586.16;;;7.68;57.98
7754;BME280;3921;42.266;23.122;2023-04-08T02:35:55;95579.38;;;7.50;57.29
7754;BME280;3921;42.266;23.122;2023-04-08T02:38:22;95647.28;;;8.08;57.49
7754;BME280;3921;42.266;23.122;2023-04-08T02:40:54;95267.28;;;5.55;57.83
7754;BME280;3921;42.266;23.122;2023-04-08T02:43:21;95526.69;;;7.23;58.14
7754;BME280;3921;42.266;23.122;2023-04-08T02:45:58;95549.84;;;7.05;58.15
7754;BME280;3921;42.266;23.122;2023-04-08T02:48:28;95527.44;;;7.12;57.88
7754;BME280;3921;42.266;23.122;2023-04-08T02:50:56;95589.53;;;7.68;57.43
7754;BME280;3921;42.266;23.122;2023-04-08T02:53:24;95276.53;;;5.66;57.71
7754;BME280;3921;42.266;23.122;2023-04-08T02:55:51;95488.09;;;6.88;58.49
7754;BME280;3921;42.266;23.122;2023-04-08T02:58:18;95606.94;;;7.58;58.13
7754;BME280;3921;42.266;23.122;2023-04-08T03:00:45;95233.94;;;5.43;58.07
7754;BME280;3921;42.266;23.122;2023-04-08T03:03:14;95631.44;;;8.03;57.84
7754;BME280;3921;42.266;23.122;2023-04-08T03:05:41;95624.69;;;7.96;57.78
7754;BME280;3921;42.266;23.122;2023-04-08T03:08:09;95650.69;;;8.15;58.31
7754;BME280;3921;42.266;23.122;2023-04-08T03:10:36;95229.00;;;5.46;57.93
7754;BME280;3921;42.266;23.122;2023-04-08T03:13:03;95433.03;;;6.76;58.04
7754;BME280;3921;42.266;23.122;2023-04-08T03:15:32;95540.94;;;7.39;58.55
7754;BME280;3921;42.266;23.122;2023-04-08T03:17:59;95236.56;;;5.53;58.22
7754;BME280;3921;42.266;23.122;2023-04-08T03:20:28;95456.28;;;6.71;58.22
7754;BME280;3921;42.266;23.122;2023-04-08T03:22:57;95222.34;;;5.45;58.43
7754;BME280;3921;42.266;23.122;2023-04-08T03:25:25;95567.78;;;7.61;59.14
7754;BME280;3921;42.266;23.122;2023-04-08T03:27:53;95689.06;;;8.20;59.63
7754;BME280;3921;42.266;23.122;2023-04-08T03:30:20;95379.91;;;5.95;59.71
7754;BME280;3921;42.266;23.122;2023-04-08T03:32:50;95314.16;;;5.87;60.36
7754;BME280;3921;42.266;23.122;2023-04-08T03:35:18;95199.66;;;5.19;60.37
7754;BME280;3921;42.266;23.122;2023-04-08T03:37:49;95365.06;;;6.07;60.86
7754;BME280;3921;42.266;23.122;2023-04-08T03:40:16;95681.47;;;8.02;60.92
7754;BME280;3921;42.266;23.122;2023-04-08T03:42:46;95257.16;;;5.39;60.94
7754;BME280;3921;42.266;23.122;2023-04-08T03:45:13;95688.22;;;8.13;60.66
7754;BME280;3921;42.266;23.122;2023-04-08T03:47:40;95633.72;;;7.72;60.92
7754;BME280;3921;42.266;23.122;2023-04-08T03:50:09;95428.50;;;6.31;60.68
7754;BME280;3921;42.266;23.122;2023-04-08T03:52:43;95332.31;;;5.78;59.80
7754;BME280;3921;42.266;23.122;2023-04-08T03:55:11;95293.97;;;5.66;59.75
7754;BME280;3921;42.266;23.122;2023-04-08T03:57:39;95384.28;;;6.15;59.04
7754;BME280;3921;42.266;23.122;2023-04-08T04:00:12;95483.75;;;6.69;59.45
7754;BME280;3921;42.266;23.122;2023-04-08T04:02:39;95695.47;;;7.80;59.33
7754;BME280;3921;42.266;23.122;2023-04-08T04:05:09;95537.34;;;7.00;59.57
7754;BME280;3921;42.266;23.122;2023-04-08T04:07:36;95306.25;;;5.47;59.39
7754;BME280;3921;42.266;23.122;2023-04-08T04:10:04;95665.53;;;7.86;59.27
7754;BME280;3921;42.266;23.122;2023-04-08T04:12:33;95272.97;;;5.42;58.55
7754;BME280;3921;42.266;23.122;2023-04-08T04:15:00;95658.75;;;7.76;58.78
7754;BME280;3921;42.266;23.122;2023-04-08T04:17:27;95475.34;;;6.58;58.99
7754;BME280;3921;42.266;23.122;2023-04-08T04:19:54;95516.31;;;6.77;58.99
7754;BME280;3921;42.266;23.122;2023-04-08T04:22:22;95369.28;;;6.13;58.42
7754;BME280;3921;42.266;23.122;2023-04-08T04:24:49;95642.13;;;7.81;58.68
7754;BME280;3921;42.266;23.122;2023-04-08T04:27:16;95754.44;;;8.54;58.59
7754;BME280;3921;42.266;23.122;2023-04-08T04:29:44;95783.66;;;8.53;58.57
7754;BME280;3921;42.266;23.122;2023-04-08T04:32:11;95505.50;;;6.81;58.88
7754;BME280;3921;42.266;23.122;2023-04-08T04:34:39;95252.22;;;5.45;58.85
7754;BME280;3921;42.266;23.122;2023-04-08T04:37:06;95641.22;;;7.74;58.63
7754;BME280;3921;42.266;23.122;2023-04-08T04:39:33;95672.19;;;7.88;58.93
7754;BME280;3921;42.266;23.122;2023-04-08T04:42:00;95683.16;;;8.04;58.40
7754;BME280;3921;42.266;23.122;2023-04-08T04:44:28;95775.34;;;8.57;58.80
7754;BME280;3921;42.266;23.122;2023-04-08T04:46:57;95750.19;;;8.42;59.01
7754;BME280;3921;42.266;23.122;2023-04-08T04:49:24;95704.09;;;8.15;58.96
7754;BME280;3921;42.266;23.122;2023-04-08T04:51:51;95663.91;;;7.95;58.64
7754;BME280;3921;42.266;23.122;2023-04-08T04:54:18;95664.72;;;7.93;58.30
7754;BME280;3921;42.266;23.122;2023-04-08T04:56:45;95698.09;;;7.93;58.64
7754;BME280;3921;42.266;23.122;2023-04-08T04:59:12;95281.28;;;5.44;58.63
7754;BME280;3921;42.266;23.122;2023-04-08T05:01:39;95676.44;;;7.98;58.79
7754;BME280;3921;42.266;23.122;2023-04-08T05:04:08;95381.88;;;6.27;58.73
7754;BME280;3921;42.266;23.122;2023-04-08T05:06:35;95270.72;;;5.62;58.95
7754;BME280;3921;42.266;23.122;2023-04-08T05:09:02;95209.56;;;5.13;58.92
7754;BME280;3921;42.266;23.122;2023-04-08T05:11:30;95266.56;;;5.63;58.87
7754;BME280;3921;42.266;23.122;2023-04-08T05:13:57;95700.75;;;8.15;58.92
7754;BME280;3921;42.266;23.122;2023-04-08T05:16:24;95658.13;;;8.06;58.92
7754;BME280;3921;42.266;23.122;2023-04-08T05:18:51;95517.34;;;7.03;59.20
7754;BME280;3921;42.266;23.122;2023-04-08T05:21:20;95343.50;;;6.12;59.30
7754;BME280;3921;42.266;23.122;2023-04-08T05:23:48;95382.88;;;6.44;58.87
7754;BME280;3921;42.266;23.122;2023-04-08T05:26:17;95747.78;;;8.59;59.35
7754;BME280;3921;42.266;23.122;2023-04-08T05:28:50;95599.59;;;7.82;59.11
7754;BME280;3921;42.266;23.122;2023-04-08T05:31:23;95315.91;;;5.94;58.64
7754;BME280;3921;42.266;23.122;2023-04-08T05:34:10;95303.34;;;5.88;58.37
7754;BME280;3921;42.266;23.122;2023-04-08T05:36:48;95597.19;;;7.94;58.15
7754;BME280;3921;42.266;23.122;2023-04-08T05:39:17;95264.28;;;5.87;57.53
7754;BME280;3921;42.266;23.122;2023-04-08T05:41:45;95611.19;;;7.69;57.91
7754;BME280;3921;42.266;23.122;2023-04-08T05:44:12;95293.56;;;6.05;56.97
7754;BME280;3921;42.266;23.122;2023-04-08T05:46:40;95338.59;;;6.22;56.80
7754;BME280;3921;42.266;23.122;2023-04-08T05:49:08;95327.09;;;6.37;56.82
7754;BME280;3921;42.266;23.122;2023-04-08T05:51:38;95233.53;;;5.85;56.57
7754;BME280;3921;42.266;23.122;2023-04-08T05:54:07;95588.88;;;8.00;56.08
7754;BME280;3921;42.266;23.122;2023-04-08T05:56:35;95552.94;;;7.89;55.73
7754;BME280;3921;42.266;23.122;2023-04-08T05:59:02;95521.97;;;7.65;54.97
7754;BME280;3921;42.266;23.122;2023-04-08T06:01:29;95383.88;;;6.68;54.50
7754;BME280;3921;42.266;23.122;2023-04-08T06:03:56;95282.97;;;6.35;55.04
7754;BME280;3921;42.266;23.122;2023-04-08T06:06:24;95420.84;;;7.11;55.08
7754;BME280;3921;42.266;23.122;2023-04-08T06:08:51;95430.88;;;7.21;55.09
7754;BME280;3921;42.266;23.122;2023-04-08T06:11:20;95404.25;;;7.23;54.71
7754;BME280;3921;42.266;23.122;2023-04-08T06:13:47;95354.06;;;6.92;54.73
7754;BME280;3921;42.266;23.122;2023-04-08T06:16:15;95604.13;;;8.43;54.90
7754;BME280;3921;42.266;23.122;2023-04-08T06:18:43;95415.00;;;7.15;55.55
7754;BME280;3921;42.266;23.122;2023-04-08T06:21:10;95560.63;;;8.24;55.28
7754;BME280;3921;42.266;23.122;2023-04-08T06:23:37;95534.63;;;7.96;54.98
7754;BME280;3921;42.266;23.122;2023-04-08T06:26:04;95790.03;;;9.59;55.31
7754;BME280;3921;42.266;23.122;2023-04-08T06:28:33;95622.59;;;8.62;54.90
7754;BME280;3921;42.266;23.122;2023-04-08T06:31:01;95524.72;;;8.14;55.51
7754;BME280;3921;42.266;23.122;2023-04-08T06:33:28;95710.47;;;9.20;54.98
7754;BME280;3921;42.266;23.122;2023-04-08T06:36:01;95508.84;;;8.05;54.75
7754;BME280;3921;42.266;23.122;2023-04-08T06:38:28;95275.59;;;6.53;55.03
7754;BME280;3921;42.266;23.122;2023-04-08T06:41:00;95279.06;;;6.75;55.78
7754;BME280;3921;42.266;23.122;2023-04-08T06:43:27;95250.66;;;6.56;55.81
7754;BME280;3921;42.266;23.122;2023-04-08T06:45:56;95556.44;;;8.23;55.51
7754;BME280;3921;42.266;23.122;2023-04-08T06:48:23;95764.97;;;9.79;55.89
7754;BME280;3921;42.266;23.122;2023-04-08T06:51:00;95632.69;;;8.86;55.76
7754;BME280;3921;42.266;23.122;2023-04-08T06:53:32;95469.59;;;8.01;55.85
7754;BME280;3921;42.266;23.122;2023-04-08T06:56:00;95383.56;;;7.59;55.77
7754;BME280;3921;42.266;23.122;2023-04-08T06:58:29;95739.00;;;9.54;55.83
7754;BME280;3921;42.266;23.122;2023-04-08T07:00:58;95821.06;;;10.04;56.07
7754;BME280;3921;42.266;23.122;2023-04-08T07:03:27;95208.19;;;6.49;56.13
7754;BME280;3921;42.266;23.122;2023-04-08T07:05:55;95372.72;;;7.52;55.22
7754;BME280;3921;42.266;23.122;2023-04-08T07:08:22;95307.53;;;7.06;54.45
7754;BME280;3921;42.266;23.122;2023-04-08T07:10:51;95519.84;;;8.39;55.06
7754;BME280;3921;42.266;23.122;2023-04-08T07:13:18;95708.91;;;9.68;54.77
7754;BME280;3921;42.266;23.122;2023-04-08T07:15:45;95496.44;;;8.32;53.90
7754;BME280;3921;42.266;23.122;2023-04-08T07:18:14;95340.88;;;7.14;53.97
7754;BME280;3921;42.266;23.122;2023-04-08T07:20:41;95500.66;;;8.45;53.90
7754;BME280;3921;42.266;23.122;2023-04-08T07:23:08;95741.56;;;9.89;52.56
7754;BME280;3921;42.266;23.122;2023-04-08T07:25:36;95687.16;;;9.68;52.42
7754;BME280;3921;42.266;23.122;2023-04-08T07:28:04;95713.91;;;9.63;52.38
7754;BME280;3921;42.266;23.122;2023-04-08T07:30:31;95483.13;;;8.44;52.05
7754;BME280;3921;42.266;23.122;2023-04-08T07:32:58;95343.59;;;7.66;51.11
7754;BME280;3921;42.266;23.122;2023-04-08T07:35:27;95688.84;;;9.75;51.18
7754;BME280;3921;42.266;23.122;2023-04-08T07:37:56;95662.91;;;9.60;51.23
7754;BME280;3921;42.266;23.122;2023-04-08T07:40:23;95819.44;;;10.49;50.49
7754;BME280;3921;42.266;23.122;2023-04-08T07:42:50;95497.34;;;8.60;50.74
7754;BME280;3921;42.266;23.122;2023-04-08T07:45:20;95263.47;;;7.24;50.75
7754;BME280;3921;42.266;23.122;2023-04-08T07:47:47;95572.59;;;9.14;50.70
7754;BME280;3921;42.266;23.122;2023-04-08T07:50:14;95694.69;;;9.91;50.93
7754;BME280;3921;42.266;23.122;2023-04-08T07:52:43;95446.34;;;8.28;50.98
7754;BME280;3921;42.266;23.122;2023-04-08T07:55:10;95725.66;;;10.15;50.42
7754;BME280;3921;42.266;23.122;2023-04-08T07:57:37;95605.19;;;9.40;50.37
7754;BME280;3921;42.266;23.122;2023-04-08T08:00:06;95330.25;;;7.60;49.77
7754;BME280;3921;42.266;23.122;2023-04-08T08:02:33;95334.38;;;7.56;49.56
7754;BME280;3921;42.266;23.122;2023-04-08T08:05:00;95512.41;;;8.86;49.05
7754;BME280;3921;42.266;23.122;2023-04-08T08:07:28;95611.91;;;9.53;48.09
7754;BME280;3921;42.266;23.122;2023-04-08T08:09:57;95596.03;;;9.46;48.69
7754;BME280;3921;42.266;23.122;2023-04-08T08:12:24;95363.66;;;7.89;47.94
7754;BME280;3921;42.266;23.122;2023-04-08T08:14:51;95506.59;;;8.90;47.95
7754;BME280;3921;42.266;23.122;2023-04-08T08:17:23;95730.69;;;10.34;48.47
7754;BME280;3921;42.266;23.122;2023-04-08T08:19:50;95408.84;;;8.41;48.29
7754;BME280;3921;42.266;23.122;2023-04-08T08:22:17;95710.59;;;10.19;48.50
7754;BME280;3921;42.266;23.122;2023-04-08T08:24:44;95498.19;;;8.71;48.18
7754;BME280;3921;42.266;23.122;2023-04-08T08:27:13;95484.00;;;8.93;48.08
7754;BME280;3921;42.266;23.122;2023-04-08T08:29:40;95309.44;;;7.84;47.87
7754;BME280;3921;42.266;23.122;2023-04-08T08:32:08;95366.22;;;8.09;47.55
7754;BME280;3921;42.266;23.122;2023-04-08T08:34:35;95535.84;;;9.26;47.84
7754;BME280;3921;42.266;23.122;2023-04-08T08:37:04;95825.25;;;11.00;47.79
7754;BME280;3921;42.266;23.122;2023-04-08T08:39:31;95505.75;;;9.07;47.57
7754;BME280;3921;42.266;23.122;2023-04-08T08:41:59;95347.84;;;8.07;47.54
7754;BME280;3921;42.266;23.122;2023-04-08T08:44:28;95489.03;;;9.24;47.28
7754;BME280;3921;42.266;23.122;2023-04-08T08:46:56;95335.34;;;8.18;47.63
7754;BME280;3921;42.266;23.122;2023-04-08T08:49:25;95295.31;;;7.92;48.05
7754;BME280;3921;42.266;23.122;2023-04-08T08:51:53;95344.53;;;8.31;48.16
7754;BME280;3921;42.266;23.122;2023-04-08T08:54:21;95237.75;;;7.77;48.67
7754;BME280;3921;42.266;23.122;2023-04-08T08:56:48;95279.47;;;8.04;48.85
7754;BME280;3921;42.266;23.122;2023-04-08T08:59:15;95575.88;;;10.03;48.29
7754;BME280;3921;42.266;23.122;2023-04-08T09:02:05;95332.06;;;8.42;48.01
7754;BME280;3921;42.266;23.122;2023-04-08T09:04:55;95649.44;;;10.54;47.81
7754;BME280;3921;42.266;23.122;2023-04-08T09:07:23;95388.81;;;8.87;47.84
7754;BME280;3921;42.266;23.122;2023-04-08T09:09:53;95281.97;;;8.42;48.22
7754;BME280;3921;42.266;23.122;2023-04-08T09:12:20;95613.50;;;10.38;48.14
7754;BME280;3921;42.266;23.122;2023-04-08T09:14:48;95759.69;;;11.46;48.69
7754;BME280;3921;42.266;23.122;2023-04-08T09:17:34;95312.81;;;8.76;48.12
7754;BME280;3921;42.266;23.122;2023-04-08T09:20:15;95620.00;;;10.83;48.07
7754;BME280;3921;42.266;23.122;2023-04-08T09:22:59;95736.16;;;11.54;48.24
7754;BME280;3921;42.266;23.122;2023-04-08T09:25:27;95281.94;;;8.69;48.27
7754;BME280;3921;42.266;23.122;2023-04-08T09:28:04;95271.06;;;8.80;47.84
7754;BME280;3921;42.266;23.122;2023-04-08T09:30:31;95459.56;;;10.10;48.08
7754;BME280;3921;42.266;23.122;2023-04-08T09:33:00;95260.16;;;8.94;47.60
7754;BME280;3921;42.266;23.122;2023-04-08T09:35:31;95211.03;;;8.50;47.56
7754;BME280;3921;42.266;23.122;2023-04-08T09:37:59;95265.19;;;8.94;47.70
7754;BME280;3921;42.266;23.122;2023-04-08T09:40:28;95514.59;;;10.54;47.36
7754;BME280;3921;42.266;23.122;2023-04-08T09:43:04;95479.50;;;10.45;46.90
7754;BME280;3921;42.266;23.122;2023-04-08T09:45:35;95421.13;;;9.91;47.44
7754;BME280;3921;42.266;23.122;2023-04-08T09:48:10;95681.63;;;11.55;47.11
7754;BME280;3921;42.266;23.122;2023-04-08T09:50:42;95296.78;;;9.37;46.88
7754;BME280;3921;42.266;23.122;2023-04-08T09:53:13;95663.13;;;11.65;46.45
7754;BME280;3921;42.266;23.122;2023-04-08T09:55:49;95315.94;;;9.50;45.55
7754;BME280;3921;42.266;23.122;2023-04-08T09:58:28;95303.44;;;9.44;45.22
7754;BME280;3921;42.266;23.122;2023-04-08T10:01:00;95201.66;;;9.08;45.75
7754;BME280;3921;42.266;23.122;2023-04-08T10:03:35;95402.56;;;10.30;45.82
7754;BME280;3921;42.266;23.122;2023-04-08T10:06:05;95664.56;;;12.00;46.42
7754;BME280;3921;42.266;23.122;2023-04-08T10:08:35;95337.34;;;10.12;45.81
7754;BME280;3921;42.266;23.122;2023-04-08T10:11:02;95676.88;;;12.27;45.72
7754;BME280;3921;42.266;23.122;2023-04-08T10:13:31;95562.59;;;11.48;45.36
7754;BME280;3921;42.266;23.122;2023-04-08T10:16:19;95630.03;;;12.11;45.75
7754;BME280;3921;42.266;23.122;2023-04-08T10:18:55;95536.41;;;11.70;45.40
7754;BME280;3921;42.266;23.122;2023-04-08T10:21:36;95477.91;;;11.47;44.14
7754;BME280;3921;42.266;23.122;2023-04-08T10:24:07;95543.66;;;12.01;43.73
7754;BME280;3921;42.266;23.122;2023-04-08T10:26:41;95483.41;;;11.84;43.28
7754;BME280;3921;42.266;23.122;2023-04-08T10:29:30;95549.16;;;12.35;42.30
7754;BME280;3921;42.266;23.122;2023-04-08T10:32:05;95562.06;;;12.77;42.74
7754;BME280;3921;42.266;23.122;2023-04-08T10:34:50;95635.78;;;13.61;42.62
7754;BME280;3921;42.266;23.122;2023-04-08T10:37:19;95477.31;;;12.67;39.38
7754;BME280;3921;42.266;23.122;2023-04-08T10:39:48;95428.41;;;12.20;39.42
7754;BME280;3921;42.266;23.122;2023-04-08T10:42:17;95563.25;;;13.15;38.58
7754;BME280;3921;42.266;23.122;2023-04-08T10:44:44;95254.47;;;11.06;38.52
7754;BME280;3921;42.266;23.122;2023-04-08T10:47:12;95256.09;;;11.13;38.91
7754;BME280;3921;42.266;23.122;2023-04-08T10:49:41;95421.69;;;12.20;38.23
7754;BME280;3921;42.266;23.122;2023-04-08T10:52:08;95250.84;;;11.28;38.08
7754;BME280;3921;42.266;23.122;2023-04-08T10:54:36;95512.19;;;12.96;37.03
7754;BME280;3921;42.266;23.122;2023-04-08T10:57:04;95404.09;;;12.19;36.32
7754;BME280;3921;42.266;23.122;2023-04-08T10:59:32;95535.09;;;12.85;36.41
7754;BME280;3921;42.266;23.122;2023-04-08T11:02:04;95242.50;;;11.26;36.29
7754;BME280;3921;42.266;23.122;2023-04-08T11:04:31;95632.28;;;13.68;35.88
7754;BME280;3921;42.266;23.122;2023-04-08T11:07:04;95350.25;;;12.26;35.73
7754;BME280;3921;42.266;23.122;2023-04-08T11:09:33;95268.63;;;11.82;35.29
7754;BME280;3921;42.266;23.122;2023-04-08T11:12:00;95391.06;;;12.48;35.98
7754;BME280;3921;42.266;23.122;2023-04-08T11:14:28;95389.78;;;12.78;35.83
7754;BME280;3921;42.266;23.122;2023-04-08T11:16:57;95544.00;;;14.09;36.14
7754;BME280;3921;42.266;23.122;2023-04-08T11:19:26;95222.50;;;12.34;35.70
7754;BME280;3921;42.266;23.122;2023-04-08T11:21:53;95634.81;;;15.07;34.45
7754;BME280;3921;42.266;23.122;2023-04-08T11:24:22;95316.06;;;13.13;33.63
7754;BME280;3921;42.266;23.122;2023-04-08T11:26:49;95550.09;;;14.86;33.93
7754;BME280;3921;42.266;23.122;2023-04-08T11:29:17;95298.47;;;13.09;33.86
7754;BME280;3921;42.266;23.122;2023-04-08T11:31:44;95477.34;;;14.17;34.14
7754;BME280;3921;42.266;23.122;2023-04-08T11:34:21;95591.47;;;14.83;34.90
7754;BME280;3921;42.266;23.122;2023-04-08T11:36:49;95242.34;;;12.53;35.05
7754;BME280;3921;42.266;23.122;2023-04-08T11:39:16;95281.13;;;12.92;34.12
7754;BME280;3921;42.266;23.122;2023-04-08T11:41:45;95578.16;;;14.75;34.59
7754;BME280;3921;42.266;23.122;2023-04-08T11:44:12;95285.25;;;12.96;34.86
7754;BME280;3921;42.266;23.122;2023-04-08T11:46:40;95496.06;;;14.51;34.97
7754;BME280;3921;42.266;23.122;2023-04-08T11:49:07;95274.28;;;13.43;34.04
7754;BME280;3921;42.266;23.122;2023-04-08T11:51:54;95413.56;;;14.46;33.52
7754;BME280;3921;42.266;23.122;2023-04-08T11:54:25;95477.63;;;14.83;33.61
7754;BME280;3921;42.266;23.122;2023-04-08T11:56:55;95310.28;;;13.92;34.06
7754;BME280;3921;42.266;23.122;2023-04-08T11:59:22;95499.44;;;15.25;34.42
7754;BME280;3921;42.266;23.122;2023-04-08T12:01:53;95138.50;;;13.19;34.15
7754;BME280;3921;42.266;23.122;2023-04-08T12:04:20;95290.03;;;13.95;34.16
7754;BME280;3921;42.266;23.122;2023-04-08T12:06:48;95190.41;;;13.32;33.90
7754;BME280;3921;42.266;23.122;2023-04-08T12:09:15;95332.38;;;14.22;33.69
7754;BME280;3921;42.266;23.122;2023-04-08T12:11:42;95240.53;;;13.86;33.73
7754;BME280;3921;42.266;23.122;2023-04-08T12:14:11;95459.50;;;15.37;34.28
7754;BME280;3921;42.266;23.122;2023-04-08T12:16:39;95345.78;;;14.61;34.04
7754;BME280;3921;42.266;23.122;2023-04-08T12:19:06;95286.78;;;14.25;33.65
7754;BME280;3921;42.266;23.122;2023-04-08T12:21:33;95458.84;;;15.29;33.59
7754;BME280;3921;42.266;23.122;2023-04-08T12:24:00;95489.81;;;15.39;33.03
7754;BME280;3921;42.266;23.122;2023-04-08T12:26:27;95118.28;;;12.82;33.76
7754;BME280;3921;42.266;23.122;2023-04-08T12:28:55;95366.66;;;14.32;34.07
7754;BME280;3921;42.266;23.122;2023-04-08T12:31:23;95625.41;;;15.88;34.27
7754;BME280;3921;42.266;23.122;2023-04-08T12:33:52;95542.84;;;15.09;34.68
7754;BME280;3921;42.266;23.122;2023-04-08T12:36:19;95434.66;;;14.43;34.86
7754;BME280;3921;42.266;23.122;2023-04-08T12:38:46;95361.72;;;13.88;35.40
7754;BME280;3921;42.266;23.122;2023-04-08T12:41:14;95480.38;;;14.73;35.36
7754;BME280;3921;42.266;23.122;2023-04-08T12:43:41;95172.91;;;12.81;36.30
7754;BME280;3921;42.266;23.122;2023-04-08T12:46:08;95231.94;;;13.13;35.58
7754;BME280;3921;42.266;23.122;2023-04-08T12:48:37;95202.28;;;12.82;36.17
7754;BME280;3921;42.266;23.122;2023-04-08T12:51:04;95338.75;;;13.60;35.94
7754;BME280;3921;42.266;23.122;2023-04-08T12:53:35;95135.22;;;12.30;35.43
7754;BME280;3921;42.266;23.122;2023-04-08T12:56:02;95437.88;;;14.09;35.11
7754;BME280;3921;42.266;23.122;2023-04-08T12:58:30;95168.50;;;12.47;34.71
7754;BME280;3921;42.266;23.122;2023-04-08T13:00:57;95532.28;;;14.52;35.01
7754;BME280;3921;42.266;23.122;2023-04-08T13:03:24;95159.88;;;12.13;35.75
7754;BME280;3921;42.266;23.122;2023-04-08T13:05:56;95149.00;;;12.11;37.23
7754;BME280;3921;42.266;23.122;2023-04-08T13:08:24;95157.31;;;12.16;37.77
7754;BME280;3921;42.266;23.122;2023-04-08T13:10:51;95425.41;;;13.60;37.77
7754;BME280;3921;42.266;23.122;2023-04-08T13:13:19;95258.66;;;12.78;38.04
7754;BME280;3921;42.266;23.122;2023-04-08T13:15:46;95354.22;;;13.43;38.17
7754;BME280;3921;42.266;23.122;2023-04-08T13:18:13;95425.78;;;13.84;38.34
7754;BME280;3921;42.266;23.122;2023-04-08T13:20:44;95405.31;;;13.97;37.93
7754;BME280;3921;42.266;23.122;2023-04-08T13:23:21;95363.41;;;13.89;37.65
7754;BME280;3921;42.266;23.122;2023-04-08T13:25:49;95061.31;;;12.31;36.85
7754;BME280;3921;42.266;23.122;2023-04-08T13:28:16;95165.09;;;12.93;35.73